Time;durP1;ratioP1;P1;durP2;ratioP2;P2;SDS_P1;SDS_P2;PMS_P1;PMS_P2;Temp;Humidity;BMP_temperature;BMP_pressure;BME280_temperature;BME280_humidity;BME280_pressure;Samples;Min_cycle;Max_cycle;Signal;HPM_P1;HPM_P2
2022/08/11 00:01:51;;;;;;;3.25;1.20;;;23.30;45.70;;;;;;5012691;28;20022;-67
2022/08/11 00:04:21;;;;;;;1.35;1.20;;;23.20;45.70;;;;;;5007519;28;20087;-67
2022/08/11 00:06:47;;;;;;;2.85;1.33;;;23.20;45.80;;;;;;5013242;28;20072;-67
2022/08/11 00:09:18;;;;;;;2.15;1.73;;;23.20;45.80;;;;;;5012674;28;20116;-67
2022/08/11 00:11:53;;;;;;;1.90;1.70;;;23.20;45.80;;;;;;5013231;28;20571;-67
2022/08/11 00:14:26;;;;;;;2.35;1.50;;;23.10;46.10;;;;;;5007366;28;20029;-67
2022/08/11 00:17:00;;;;;;;2.13;1.20;;;23.10;46.10;;;;;;5012935;28;20042;-67
2022/08/11 00:19:29;;;;;;;1.95;1.15;;;23.10;46.20;;;;;;5012317;28;20061;-68
2022/08/11 00:21:55;;;;;;;2.13;1.00;;;23.10;46.50;;;;;;5013241;28;20468;-67
2022/08/11 00:24:22;;;;;;;1.65;1.10;;;23.10;46.20;;;;;;5011981;28;20040;-67
2022/08/11 00:26:53;;;;;;;1.60;1.48;;;23.10;46.30;;;;;;5011807;28;20480;-67
2022/08/11 00:29:21;;;;;;;1.67;1.20;;;23.10;46.50;;;;;;5013166;28;20114;-67
2022/08/11 00:31:52;;;;;;;1.40;1.20;;;23.10;46.60;;;;;;5012580;28;20508;-67
2022/08/11 00:34:22;;;;;;;1.52;1.10;;;23.00;46.60;;;;;;5014076;28;20128;-67
2022/08/11 00:36:54;;;;;;;1.30;1.20;;;23.10;46.60;;;;;;5013058;28;20076;-68
2022/08/11 00:39:23;;;;;;;1.35;1.13;;;23.00;46.60;;;;;;5012785;28;20033;-67
2022/08/11 00:42:23;;;;;;;1.98;1.20;;;23.10;46.70;;;;;;5012593;28;20124;-67
2022/08/11 00:45:07;;;;;;;1.77;1.20;;;23.00;46.70;;;;;;5012897;28;20072;-67
2022/08/11 00:47:33;;;;;;;1.50;1.20;;;23.00;46.70;;;;;;5012888;28;20018;-68
2022/08/11 00:50:25;;;;;;;1.42;1.13;;;23.00;46.80;;;;;;5013130;28;20022;-67
2022/08/11 00:53:15;;;;;;;1.58;1.20;;;23.00;46.90;;;;;;5012707;28;20030;-68
2022/08/11 00:56:18;;;;;;;1.30;1.20;;;22.90;47.00;;;;;;5012668;28;20029;-68
2022/08/11 00:58:55;;;;;;;1.63;1.30;;;22.90;47.10;;;;;;5011927;28;20026;-68
2022/08/11 01:01:27;;;;;;;1.90;1.00;;;22.90;47.30;;;;;;5012299;28;20519;-67
2022/08/11 01:04:30;;;;;;;2.15;1.27;;;22.90;47.40;;;;;;5012497;28;20025;-68
2022/08/11 01:07:17;;;;;;;1.60;1.10;;;22.80;47.40;;;;;;5012617;28;20022;-68
2022/08/11 01:09:52;;;;;;;1.58;1.25;;;22.80;47.50;;;;;;5012239;28;20025;-68
2022/08/11 01:12:23;;;;;;;1.45;1.30;;;22.70;47.80;;;;;;5011890;28;20052;-67
2022/08/11 01:15:20;;;;;;;2.42;1.30;;;22.70;47.90;;;;;;5012300;28;20100;-67
2022/08/11 01:18:28;;;;;;;1.73;1.40;;;22.60;48.20;;;;;;4992893;28;20045;-67
2022/08/11 01:21:29;;;;;;;1.88;1.13;;;22.50;48.20;;;;;;4992309;28;20438;-67
2022/08/11 01:24:36;;;;;;;1.98;1.65;;;22.50;48.30;;;;;;4970329;28;20093;-67
2022/08/11 01:27:20;;;;;;;1.52;1.30;;;22.40;48.50;;;;;;4995494;28;20037;-67
2022/08/11 01:29:54;;;;;;;2.35;1.08;;;22.40;48.70;;;;;;5012138;28;20033;-67
2022/08/11 01:33:03;;;;;;;1.50;1.05;;;22.30;48.70;;;;;;5011332;28;20034;-67
2022/08/11 01:36:05;;;;;;;1.30;1.20;;;22.40;48.90;;;;;;5011827;28;20100;-67
2022/08/11 01:38:36;;;;;;;1.42;1.23;;;22.30;49.00;;;;;;5011931;28;20714;-67
2022/08/11 01:41:21;;;;;;;1.75;1.35;;;22.20;49.00;;;;;;5011948;28;20105;-67
2022/08/11 01:47:05;;;;;;;1.42;1.25;;;22.20;49.30;;;;;;5008818;28;20512;-67
2022/08/11 01:49:39;;;;;;;1.55;1.20;;;22.10;49.30;;;;;;5011166;28;20037;-67
2022/08/11 01:52:11;;;;;;;2.63;1.50;;;22.10;49.40;;;;;;5010241;28;20022;-67
2022/08/11 01:54:58;;;;;;;3.03;1.40;;;22.10;49.70;;;;;;5011618;28;20408;-68
2022/08/11 01:57:45;;;;;;;1.80;1.50;;;22.00;49.80;;;;;;5011846;28;20053;-66
2022/08/11 02:00:18;;;;;;;1.83;1.27;;;22.00;50.00;;;;;;5011642;28;20033;-66
2022/08/11 02:03:07;;;;;;;2.53;1.70;;;22.00;50.10;;;;;;5012478;28;20030;-67
2022/08/11 02:05:45;;;;;;;2.95;1.60;;;21.90;50.20;;;;;;5011763;28;20092;-67
2022/08/11 02:08:22;;;;;;;3.47;1.40;;;21.90;50.40;;;;;;5011555;28;20034;-67
2022/08/11 02:13:57;;;;;;;1.88;1.50;;;21.70;51.00;;;;;;4998303;28;20069;-67
2022/08/11 02:16:41;;;;;;;2.65;1.30;;;21.60;51.20;;;;;;5007901;28;20040;-67
2022/08/11 02:25:06;;;;;;;2.60;1.63;;;21.50;51.70;;;;;;4992508;28;20413;-68
2022/08/11 02:27:46;;;;;;;2.90;1.90;;;21.40;52.50;;;;;;5011211;28;20026;-68
2022/08/11 02:30:15;;;;;;;3.75;1.50;;;21.30;52.80;;;;;;5011154;28;20034;-68
2022/08/11 02:35:50;;;;;;;1.60;1.50;;;21.30;52.70;;;;;;5011919;28;20104;-68
2022/08/11 02:38:28;;;;;;;3.13;1.70;;;21.30;53.10;;;;;;5011007;28;20053;-68
2022/08/11 02:44:35;;;;;;;2.20;1.40;;;21.30;53.30;;;;;;5011824;28;20029;-68
2022/08/11 02:47:40;;;;;;;2.20;1.90;;;21.20;53.20;;;;;;5011536;28;20025;-67
2022/08/11 02:50:22;;;;;;;2.30;1.30;;;21.20;53.60;;;;;;5011548;28;20022;-68
2022/08/11 02:52:51;;;;;;;;;;;21.10;53.70;;;;;;5014123;28;20547;-68
2022/08/11 02:55:20;;;;;;;2.75;1.70;;;21.10;54.20;;;;;;5013549;28;19910;-67
2022/08/11 02:58:29;;;;;;;1.60;1.50;;;21.10;54.00;;;;;;5009022;28;20022;-67
2022/08/11 03:01:10;;;;;;;1.77;1.50;;;21.10;54.50;;;;;;5009799;28;20042;-68
2022/08/11 03:03:46;;;;;;;2.85;1.90;;;21.00;54.20;;;;;;5010343;28;20481;-68
2022/08/11 03:06:22;;;;;;;3.42;2.15;;;21.00;54.50;;;;;;5010855;28;20026;-67
2022/08/11 03:09:02;;;;;;;2.30;1.70;;;20.90;55.20;;;;;;5009860;28;20034;-67
2022/08/11 03:18:09;;;;;;;4.10;1.60;;;20.80;55.60;;;;;;5010666;28;20044;-67
2022/08/11 03:20:47;;;;;;;2.70;1.63;;;20.80;55.40;;;;;;4990517;28;20045;-67
2022/08/11 03:23:48;;;;;;;2.65;1.70;;;20.80;55.30;;;;;;4989787;28;20023;-67
2022/08/11 03:26:41;;;;;;;2.22;1.60;;;20.80;55.30;;;;;;4981556;28;20069;-68
2022/08/11 03:29:30;;;;;;;5.13;2.40;;;20.80;55.50;;;;;;4995726;28;20057;-68
2022/08/11 03:32:01;;;;;;;3.40;2.33;;;20.60;56.20;;;;;;5009892;28;20098;-68
2022/08/11 03:34:30;;;;;;;1.73;1.60;;;20.60;56.20;;;;;;5009148;28;20025;-68
2022/08/11 03:37:52;;;;;;;2.95;2.20;;;20.60;56.20;;;;;;5009452;28;20039;-68
2022/08/11 03:43:27;;;;;;;2.40;2.08;;;20.50;56.50;;;;;;5010307;28;20127;-68
2022/08/11 03:46:11;;;;;;;2.78;2.30;;;20.50;56.90;;;;;;5009934;28;20029;-68
2022/08/11 03:48:46;;;;;;;2.60;2.03;;;20.40;57.50;;;;;;5009683;28;20030;-69
2022/08/11 03:51:37;;;;;;;2.97;2.40;;;20.40;57.60;;;;;;5009651;28;20030;-68
2022/08/11 03:54:14;;;;;;;2.65;2.00;;;20.30;57.70;;;;;;5006717;28;20109;-68
2022/08/11 03:56:52;;;;;;;3.92;2.20;;;20.30;58.00;;;;;;5009761;28;20083;-67
2022/08/11 03:59:48;;;;;;;3.47;2.13;;;20.20;58.10;;;;;;5009523;28;20393;-67
2022/08/11 04:02:39;;;;;;;3.40;2.65;;;20.20;58.30;;;;;;5010034;28;20046;-67
2022/08/11 04:05:24;;;;;;;3.70;2.15;;;20.20;58.80;;;;;;5005881;28;20014;-67
2022/08/11 04:08:27;;;;;;;2.17;1.95;;;20.10;59.00;;;;;;5013213;28;20084;-68
2022/08/11 04:11:12;;;;;;;3.38;2.45;;;20.10;58.60;;;;;;5012763;28;20164;-66
2022/08/11 04:13:53;;;;;;;3.65;2.40;;;20.10;58.70;;;;;;5013089;28;20051;-68
2022/08/11 04:16:43;;;;;;;3.30;2.50;;;20.10;58.70;;;;;;5013139;28;20425;-67
2022/08/11 04:19:35;;;;;;;3.38;2.33;;;20.10;58.70;;;;;;5013036;28;20022;-68
2022/08/11 04:22:15;;;;;;;2.60;1.92;;;20.10;58.60;;;;;;5012488;28;20392;-68
2022/08/11 04:25:05;;;;;;;2.67;2.22;;;20.10;58.50;;;;;;5012819;28;20072;-68
2022/08/11 04:28:05;;;;;;;3.13;2.03;;;20.10;58.70;;;;;;5012796;28;20493;-68
2022/08/11 04:30:49;;;;;;;3.13;1.98;;;20.10;58.90;;;;;;5012906;28;20033;-68
2022/08/11 04:33:46;;;;;;;4.53;2.50;;;20.00;58.70;;;;;;5012661;28;20030;-68
2022/08/11 04:39:42;;;;;;;2.90;2.17;;;20.00;58.70;;;;;;5013067;28;20040;-68
2022/08/11 04:45:10;;;;;;;2.35;1.85;;;20.00;58.50;;;;;;4994516;28;20397;-68
2022/08/11 05:03:03;;;;;;;2.78;2.15;;;20.30;57.80;;;;;;5012398;28;20165;-68
2022/08/11 05:06:06;;;;;;;3.47;1.83;;;20.30;57.60;;;;;;5002755;28;20251;-68
2022/08/11 05:08:34;;;;;;;2.17;1.77;;;20.30;57.40;;;;;;5012638;28;20029;-68
2022/08/11 05:11:24;;;;;;;3.03;2.00;;;20.30;57.20;;;;;;5011897;28;20030;-67
2022/08/11 05:37:00;;;;;;;2.20;1.92;;;22.10;54.30;;;;;;5004979;28;20121;-67
2022/08/11 05:56:21;;;;;;;1.98;1.58;;;27.70;42.30;;;;;;5008676;28;20068;-67
2022/08/11 05:58:53;;;;;;;2.70;1.70;;;28.00;41.30;;;;;;5009797;28;20034;-67
2022/08/11 06:01:23;;;;;;;2.80;1.70;;;28.30;40.80;;;;;;5010152;28;20112;-67
2022/08/11 06:06:40;;;;;;;3.47;1.60;;;28.70;39.60;;;;;;5011888;28;20457;-67
2022/08/11 06:09:07;;;;;;;2.17;1.50;;;29.00;39.00;;;;;;5009273;28;20515;-68
2022/08/11 06:11:39;;;;;;;2.70;1.50;;;29.30;38.40;;;;;;5010270;28;20072;-68
2022/08/11 06:14:05;;;;;;;;;;;29.30;37.80;;;;;;5023251;28;20052;-68
2022/08/11 06:16:31;;;;;;;2.00;1.55;;;29.20;37.80;;;;;;5016074;28;19915;-68
2022/08/11 06:18:59;;;;;;;1.42;1.30;;;29.50;37.30;;;;;;5017104;28;20506;-68
2022/08/11 06:21:25;;;;;;;2.88;1.50;;;30.00;37.00;;;;;;5011597;28;20042;-67
2022/08/11 06:23:51;;;;;;;1.90;1.50;;;30.20;36.20;;;;;;5010078;28;20029;-68
2022/08/11 06:26:19;;;;;;;2.33;1.50;;;30.40;35.70;;;;;;5011937;28;20038;-68
2022/08/11 06:28:46;;;;;;;3.17;1.75;;;30.20;35.40;;;;;;5010683;28;20041;-67
2022/08/11 06:31:24;;;;;;;2.20;1.55;;;30.10;35.40;;;;;;5008689;28;20520;-67
2022/08/11 06:33:49;;;;;;;2.80;1.48;;;30.00;35.60;;;;;;5008638;28;20030;-68
2022/08/11 06:36:22;;;;;;;2.08;1.50;;;30.10;35.60;;;;;;5014334;28;20107;-68
2022/08/11 06:38:48;;;;;;;3.40;1.65;;;30.20;35.20;;;;;;5008252;28;20017;-68
2022/08/11 06:41:33;;;;;;;2.05;1.27;;;30.40;35.10;;;;;;5010294;28;20448;-68
2022/08/11 06:44:13;;;;;;;2.65;1.52;;;30.90;34.90;;;;;;5009402;28;20567;-66
2022/08/11 06:46:49;;;;;;;1.58;1.30;;;31.60;34.30;;;;;;5009235;28;20014;-67
2022/08/11 06:52:08;;;;;;;2.92;1.40;;;31.50;34.00;;;;;;5009478;28;20167;-67
2022/08/11 06:54:40;;;;;;;1.58;1.15;;;31.60;33.80;;;;;;5008506;28;20037;-68
2022/08/11 07:02:46;;;;;;;2.35;1.25;;;32.30;34.00;;;;;;5020402;28;20044;-68
2022/08/11 07:05:42;;;;;;;1.60;1.50;;;32.00;33.00;;;;;;5014868;28;20045;-68
2022/08/11 07:17:19;;;;;;;1.55;1.27;;;32.60;33.30;;;;;;5009983;28;20716;-67
2022/08/11 07:31:16;;;;;;;2.03;1.30;;;34.10;31.40;;;;;;5009827;28;20698;-67
2022/08/11 07:33:48;;;;;;;1.83;1.38;;;33.80;31.50;;;;;;5009627;28;20040;-67
2022/08/11 07:36:15;;;;;;;2.50;1.50;;;33.30;31.30;;;;;;5014577;28;20026;-67
2022/08/11 07:38:49;;;;;;;2.15;1.30;;;33.00;31.60;;;;;;5014005;28;20096;-67
2022/08/11 07:41:17;;;;;;;2.88;1.50;;;32.60;31.90;;;;;;5008947;28;20029;-67
2022/08/11 07:43:48;;;;;;;2.67;1.50;;;32.30;31.80;;;;;;5015044;28;20030;-68
2022/08/11 07:54:32;;;;;;;2.85;1.65;;;31.90;33.20;;;;;;5012208;28;20052;-67
2022/08/11 07:56:58;;;;;;;1.80;1.40;;;31.50;33.30;;;;;;5011184;28;20026;-67
2022/08/11 08:18:42;;;;;;;2.15;1.70;;;28.80;36.40;;;;;;5013891;28;20048;-67
2022/08/11 08:21:11;;;;;;;1.60;1.50;;;28.60;36.30;;;;;;5014166;28;20152;-67
2022/08/11 08:23:42;;;;;;;2.08;1.55;;;28.50;36.50;;;;;;5010841;28;20432;-67
2022/08/11 08:30:46;;;;;;;3.35;2.00;;;28.80;36.50;;;;;;5009893;28;20036;-68
2022/08/11 08:31:45;;;;;;;2.80;1.83;;;28.70;36.20;;;;;;5010997;28;20550;-67
2022/08/11 08:34:12;;;;;;;1.52;1.33;;;28.70;36.40;;;;;;5012474;28;20033;-67
2022/08/11 08:36:42;;;;;;;2.70;1.55;;;28.80;36.50;;;;;;5014478;28;20033;-66
2022/08/11 08:39:07;;;;;;;3.85;1.55;;;28.80;36.20;;;;;;5013102;28;20018;-69
2022/08/11 08:41:37;;;;;;;2.53;1.40;;;29.00;36.50;;;;;;5006550;28;20499;-68
2022/08/11 08:44:07;;;;;;;3.03;1.90;;;29.20;36.60;;;;;;5011099;28;20596;-68
2022/08/11 08:46:41;;;;;;;2.35;2.00;;;29.40;36.30;;;;;;5007103;28;20022;-67
2022/08/11 08:49:09;;;;;;;2.42;1.73;;;29.50;35.90;;;;;;5006136;28;20030;-67
2022/08/11 08:51:38;;;;;;;2.47;1.60;;;29.40;35.40;;;;;;5006343;28;20677;-66
2022/08/11 08:54:08;;;;;;;2.80;1.80;;;29.50;35.60;;;;;;5010906;28;20487;-66
2022/08/11 08:56:38;;;;;;;3.08;1.75;;;29.50;35.20;;;;;;5010771;28;20036;-67
2022/08/11 08:59:04;;;;;;;3.47;1.83;;;29.60;35.10;;;;;;5010842;28;20034;-68
2022/08/11 09:01:36;;;;;;;3.78;2.08;;;29.70;35.40;;;;;;5008768;28;20029;-67
2022/08/11 09:04:07;;;;;;;2.78;1.77;;;29.70;35.00;;;;;;5010370;28;20057;-67
2022/08/11 09:06:38;;;;;;;2.58;1.80;;;29.80;34.30;;;;;;5011167;28;20436;-67
2022/08/11 09:09:06;;;;;;;1.88;1.77;;;29.60;34.20;;;;;;5012227;28;20033;-66
2022/08/11 09:11:54;;;;;;;2.25;1.52;;;29.60;34.30;;;;;;5013279;28;20025;-66
2022/08/11 09:14:23;;;;;;;2.80;1.80;;;29.70;34.80;;;;;;5012175;28;20060;-68
2022/08/11 09:16:49;;;;;;;1.80;1.70;;;29.90;34.40;;;;;;5009238;28;20097;-67
2022/08/11 09:19:19;;;;;;;3.40;1.80;;;30.10;34.30;;;;;;5010548;28;20080;-67
2022/08/11 09:26:58;;;;;;;3.17;1.70;;;30.10;33.80;;;;;;5027945;28;20018;-67
2022/08/11 09:27:21;;;;;;;2.70;2.10;;;30.20;33.20;;;;;;5010302;28;20404;-67
2022/08/11 09:29:47;;;;;;;3.22;1.80;;;30.00;33.50;;;;;;5008503;28;20034;-66
2022/08/11 09:32:14;;;;;;;1.67;1.50;;;30.10;34.00;;;;;;5008830;28;20025;-67
2022/08/11 09:34:40;;;;;;;2.25;1.80;;;30.10;34.10;;;;;;5010133;28;20030;-67
2022/08/11 09:45:24;;;;;;;2.70;1.65;;;30.20;33.90;;;;;;5008664;28;20080;-66
2022/08/11 09:47:50;;;;;;;4.35;1.98;;;30.30;34.10;;;;;;5009803;28;20473;-66
2022/08/11 09:50:17;;;;;;;2.17;1.98;;;30.40;33.90;;;;;;5010044;28;20141;-67
2022/08/11 09:52:44;;;;;;;2.55;1.98;;;30.30;33.20;;;;;;5015641;28;20026;-67
2022/08/11 09:55:14;;;;;;;5.15;1.70;;;30.20;33.00;;;;;;5012037;28;20029;-67
2022/08/11 10:00:30;;;;;;;1.83;1.60;;;30.40;33.00;;;;;;5012363;28;20040;-66
2022/08/11 10:02:57;;;;;;;2.38;1.67;;;30.50;33.00;;;;;;5012504;28;20022;-67
2022/08/11 10:08:11;;;;;;;2.97;1.60;;;30.60;32.20;;;;;;5010650;28;20068;-67
2022/08/11 10:10:38;;;;;;;1.75;1.40;;;30.60;31.90;;;;;;5011438;28;20159;-67
2022/08/11 10:13:13;;;;;;;3.47;1.80;;;30.60;32.00;;;;;;5009325;28;20503;-68
2022/08/11 10:15:44;;;;;;;5.50;2.00;;;30.80;32.30;;;;;;5026463;28;20121;-67
2022/08/11 10:21:10;;;;;;;3.38;1.80;;;31.00;32.10;;;;;;5011195;28;20029;-67
2022/08/11 10:34:47;;;;;;;2.03;1.27;;;30.80;31.30;;;;;;5011325;28;20404;-67
2022/08/11 10:37:14;;;;;;;1.98;1.50;;;30.90;31.10;;;;;;5010304;28;20030;-67
2022/08/11 10:39:41;;;;;;;2.33;1.63;;;30.90;31.00;;;;;;5005651;28;20029;-68
2022/08/11 10:44:56;;;;;;;2.20;1.40;;;31.00;30.90;;;;;;5006282;28;20048;-66
2022/08/11 10:47:37;;;;;;;1.70;1.42;;;31.20;31.40;;;;;;5008963;28;20041;-67
2022/08/11 10:58:50;;;;;;;3.15;1.52;;;31.30;30.70;;;;;;5007247;28;20036;-67
2022/08/11 11:01:25;;;;;;;3.22;1.70;;;31.30;31.00;;;;;;5006046;28;20022;-67
2022/08/11 11:03:57;;;;;;;3.40;1.90;;;31.40;30.60;;;;;;5007152;28;20022;-67
2022/08/11 11:06:42;;;;;;;3.00;1.88;;;31.30;30.20;;;;;;5006671;28;20026;-66
2022/08/11 11:09:23;;;;;;;2.05;1.70;;;31.20;30.70;;;;;;5007373;28;20064;-66
2022/08/11 11:17:55;;;;;;;2.38;1.58;;;31.40;30.90;;;;;;5010507;28;20050;-68
2022/08/11 11:20:41;;;;;;;3.35;1.70;;;31.40;30.50;;;;;;5010563;28;20022;-67
2022/08/11 11:23:32;;;;;;;1.85;1.42;;;31.50;30.40;;;;;;5009222;28;20022;-67
2022/08/11 11:26:27;;;;;;;2.00;1.47;;;31.60;30.70;;;;;;5011178;28;20060;-67
2022/08/11 11:29:12;;;;;;;3.00;1.92;;;31.90;30.60;;;;;;5011959;28;20285;-67
2022/08/11 11:32:15;;;;;;;2.53;1.80;;;31.90;30.00;;;;;;5012860;28;20045;-67
2022/08/11 11:35:25;;;;;;;2.38;1.65;;;31.90;30.00;;;;;;5016834;28;20053;-67
2022/08/11 11:37:52;;;;;;;2.30;1.58;;;31.90;29.00;;;;;;5009677;28;20022;-68
2022/08/11 11:40:20;;;;;;;2.90;1.70;;;31.80;29.30;;;;;;5011764;28;20044;-67
2022/08/11 11:42:47;;;;;;;1.77;1.45;;;31.90;29.40;;;;;;5016676;28;20396;-67
2022/08/11 11:45:24;;;;;;;2.40;1.70;;;32.00;29.30;;;;;;5014233;28;20022;-68
2022/08/11 11:47:52;;;;;;;2.35;1.50;;;32.10;28.90;;;;;;5009175;28;20038;-67
2022/08/11 11:50:38;;;;;;;2.75;1.50;;;32.20;28.70;;;;;;5014256;28;20033;-67
2022/08/11 11:53:06;;;;;;;1.90;1.40;;;32.20;28.60;;;;;;5012002;28;20120;-67
2022/08/11 11:55:33;;;;;;;1.75;1.58;;;32.10;28.20;;;;;;5012092;28;20112;-67
2022/08/11 12:03:32;;;;;;;1.60;1.33;;;32.00;28.10;;;;;;5012204;28;20080;-67
2022/08/11 12:05:59;;;;;;;2.45;1.67;;;32.00;28.50;;;;;;5011622;28;20026;-67
2022/08/11 12:08:26;;;;;;;3.65;1.42;;;32.30;28.60;;;;;;5011511;28;20034;-67
2022/08/11 12:13:42;;;;;;;1.67;1.30;;;32.70;28.10;;;;;;5015340;28;20057;-68
2022/08/11 12:16:10;;;;;;;2.63;1.70;;;32.90;28.00;;;;;;5012942;28;20435;-68
2022/08/11 12:18:37;;;;;;;1.67;1.40;;;33.10;27.50;;;;;;5011259;28;20100;-67
2022/08/11 12:21:04;;;;;;;1.45;1.35;;;33.10;27.80;;;;;;5010646;28;20038;-65
2022/08/11 12:29:04;;;;;;;1.83;1.50;;;32.80;28.00;;;;;;5011624;28;20132;-66
2022/08/11 12:31:31;;;;;;;3.00;1.58;;;32.70;27.70;;;;;;5010905;28;20061;-66
2022/08/11 12:34:11;;;;;;;2.90;1.50;;;32.80;27.90;;;;;;5010734;28;20105;-66
2022/08/11 12:36:53;;;;;;;2.65;1.30;;;32.90;27.60;;;;;;5011993;28;20034;-67
2022/08/11 12:45:26;;;;;;;3.65;1.60;;;32.80;27.40;;;;;;5011597;28;20501;-66
2022/08/11 12:53:23;;;;;;;1.85;1.10;;;33.10;26.60;;;;;;5011339;28;20037;-66
2022/08/11 12:58:40;;;;;;;1.90;1.50;;;33.30;26.60;;;;;;5011121;28;20168;-66
2022/08/11 13:06:36;;;;;;;2.25;1.65;;;33.60;26.50;;;;;;5010793;28;20028;-67
2022/08/11 13:09:04;;;;;;;1.40;1.10;;;33.50;26.50;;;;;;5010240;28;20033;-66
2022/08/11 13:14:16;;;;;;;2.13;1.30;;;33.50;26.20;;;;;;5010389;28;20127;-66
2022/08/11 13:19:29;;;;;;;1.75;1.30;;;33.90;26.10;;;;;;5012787;28;20125;-66
2022/08/11 13:21:56;;;;;;;2.28;1.40;;;34.00;26.00;;;;;;5014620;28;20109;-67
2022/08/11 13:24:22;;;;;;;2.55;1.58;;;34.00;25.70;;;;;;5010802;28;20036;-66
2022/08/11 13:26:49;;;;;;;1.33;1.23;;;34.20;26.00;;;;;;5011354;28;20032;-66
2022/08/11 13:29:20;;;;;;;1.60;1.40;;;34.20;26.10;;;;;;5013330;28;20026;-67
2022/08/11 13:31:46;;;;;;;1.70;1.50;;;34.30;26.30;;;;;;5009078;28;20116;-67
2022/08/11 13:34:13;;;;;;;3.05;1.73;;;34.50;26.40;;;;;;5010049;28;20100;-67
2022/08/11 13:36:39;;;;;;;2.08;1.50;;;34.30;26.00;;;;;;5011362;28;20608;-67
2022/08/11 13:39:06;;;;;;;1.60;1.50;;;34.00;25.90;;;;;;5010056;28;20104;-67
2022/08/11 13:41:38;;;;;;;1.98;1.40;;;33.70;25.60;;;;;;5008665;28;20465;-68
2022/08/11 13:44:16;;;;;;;2.13;1.20;;;33.70;25.60;;;;;;5026062;28;20494;-67
2022/08/11 13:46:42;;;;;;;1.30;1.20;;;33.60;25.50;;;;;;5009721;28;20432;-67
2022/08/11 13:49:09;;;;;;;1.58;1.40;;;33.80;25.80;;;;;;5007469;28;20025;-67
2022/08/11 13:51:38;;;;;;;2.30;1.40;;;33.90;25.90;;;;;;5010215;28;20056;-67
2022/08/11 13:54:21;;;;;;;2.35;1.27;;;34.00;25.90;;;;;;5010707;28;20096;-67
2022/08/11 13:56:51;;;;;;;2.38;1.50;;;34.20;26.10;;;;;;5009306;28;20097;-67
2022/08/11 13:59:24;;;;;;;1.40;1.27;;;34.20;25.60;;;;;;5009555;28;20026;-67
2022/08/11 14:02:02;;;;;;;2.20;1.42;;;34.40;25.70;;;;;;5009788;28;20020;-67
2022/08/11 14:04:54;;;;;;;2.22;1.60;;;34.70;25.60;;;;;;5013812;28;20026;-67
2022/08/11 14:07:22;;;;;;;1.40;1.30;;;34.50;25.40;;;;;;5008463;28;20045;-67
2022/08/11 14:09:55;;;;;;;1.90;1.40;;;34.60;25.70;;;;;;5009297;28;20432;-67
2022/08/11 14:15:26;;;;;;;1.85;1.30;;;34.70;25.70;;;;;;5009029;28;20080;-67
2022/08/11 14:18:01;;;;;;;1.80;1.50;;;34.60;25.30;;;;;;5009866;28;20042;-67
2022/08/11 14:22:05;;;;;;;2.03;1.50;;;34.50;25.30;;;;;;5017932;28;20029;-67
2022/08/11 14:23:26;;;;;;;2.22;1.40;;;34.50;25.30;;;;;;5009444;28;20099;-67
2022/08/11 14:28:37;;;;;;;1.60;1.50;;;34.20;25.30;;;;;;5009997;28;20041;-67
2022/08/11 14:31:07;;;;;;;2.17;1.33;;;34.20;25.50;;;;;;5024140;28;20033;-67
2022/08/11 14:33:34;;;;;;;1.95;1.58;;;34.20;25.60;;;;;;5010091;28;20044;-67
2022/08/11 14:36:04;;;;;;;2.70;1.60;;;34.10;25.80;;;;;;5010090;28;20120;-67
2022/08/11 14:38:34;;;;;;;2.85;1.50;;;34.00;25.90;;;;;;5009919;28;20029;-67
2022/08/11 14:49:17;;;;;;;1.77;1.50;;;34.30;25.50;;;;;;5009007;28;20040;-67
2022/08/11 14:51:43;;;;;;;2.03;1.50;;;34.30;25.60;;;;;;5008709;28;20022;-67
2022/08/11 14:56:55;;;;;;;2.05;1.50;;;34.50;25.30;;;;;;5008522;28;20123;-67
2022/08/11 14:59:22;;;;;;;1.40;1.30;;;34.10;25.30;;;;;;5009846;28;20040;-67
2022/08/11 15:04:32;;;;;;;2.55;1.55;;;34.30;25.30;;;;;;5010451;28;20037;-67
2022/08/11 15:06:58;;;;;;;2.03;1.40;;;34.20;25.50;;;;;;5009454;28;20408;-66
2022/08/11 15:09:24;;;;;;;2.40;1.35;;;34.20;25.40;;;;;;5010709;28;20047;-67
2022/08/11 15:12:08;;;;;;;2.13;1.50;;;34.20;25.40;;;;;;5008881;28;20034;-67
2022/08/11 15:17:20;;;;;;;3.60;1.58;;;34.10;25.50;;;;;;5009778;28;20122;-66
2022/08/11 15:25:18;;;;;;;3.53;1.55;;;33.80;25.50;;;;;;5011255;28;20033;-67
2022/08/11 15:39:21;;;;;;;2.92;1.10;;;33.60;25.60;;;;;;5009384;28;20037;-66
2022/08/11 15:47:38;;;;;;;2.05;1.35;;;33.10;25.50;;;;;;5009914;28;20088;-66
2022/08/11 15:50:05;;;;;;;1.60;1.30;;;32.90;25.70;;;;;;5011973;28;20065;-67
2022/08/11 15:52:40;;;;;;;1.58;1.40;;;32.80;25.90;;;;;;5009111;28;20026;-67
2022/08/11 15:55:07;;;;;;;1.58;1.25;;;32.80;25.80;;;;;;5008649;28;20480;-67
2022/08/11 16:05:51;;;;;;;1.48;1.30;;;32.80;25.80;;;;;;5015653;28;20041;-68
2022/08/11 16:08:23;;;;;;;1.75;1.42;;;32.80;26.00;;;;;;5012824;28;20030;-68
2022/08/11 16:10:51;;;;;;;1.42;1.27;;;32.60;26.10;;;;;;5010327;28;20073;-68
2022/08/11 16:16:13;;;;;;;2.30;1.50;;;32.70;26.40;;;;;;5012718;28;20102;-66
2022/08/11 16:18:54;;;;;;;1.73;1.45;;;32.50;26.40;;;;;;5024214;28;20062;-67
2022/08/11 16:21:24;;;;;;;;;;;32.60;26.50;;;;;;5015686;28;20056;-67
2022/08/11 16:23:53;;;;;;;3.35;1.40;;;32.70;26.50;;;;;;5005853;28;20005;-68
2022/08/11 16:26:22;;;;;;;1.52;1.40;;;32.70;26.50;;;;;;5008376;28;20034;-67
2022/08/11 16:28:53;;;;;;;1.70;1.40;;;32.60;26.70;;;;;;5005383;28;20023;-67
2022/08/11 16:31:21;;;;;;;2.28;1.52;;;32.60;26.80;;;;;;5002577;28;20026;-67
2022/08/11 16:33:48;;;;;;;2.35;1.48;;;32.50;26.80;;;;;;5004356;28;20026;-68
2022/08/11 16:39:01;;;;;;;2.70;1.42;;;32.50;26.90;;;;;;5005300;28;20746;-68
2022/08/11 16:47:04;;;;;;;1.40;1.20;;;32.50;27.10;;;;;;5006181;28;20081;-67
2022/08/11 16:49:52;;;;;;;1.83;1.35;;;32.60;27.30;;;;;;5005401;28;20068;-67
2022/08/11 16:52:19;;;;;;;1.58;1.40;;;32.70;27.20;;;;;;5000883;28;20059;-67
2022/08/11 16:54:47;;;;;;;2.55;1.35;;;32.60;27.20;;;;;;5001454;28;20018;-67
2022/08/11 17:00:05;;;;;;;1.30;1.20;;;32.80;27.30;;;;;;5005949;28;20100;-68
2022/08/11 17:14:04;;;;;;;1.30;1.17;;;32.60;27.50;;;;;;5007442;28;20061;-66
2022/08/11 17:16:35;;;;;;;1.40;1.30;;;32.70;27.40;;;;;;5005906;28;20036;-67
2022/08/11 17:19:11;;;;;;;3.37;1.53;;;32.70;27.30;;;;;;5009828;28;20034;-67
2022/08/11 17:24:44;;;;;;;1.55;1.30;;;32.60;27.60;;;;;;5004747;28;20363;-67
2022/08/11 17:27:17;;;;;;;1.20;1.10;;;32.50;27.00;;;;;;5001772;28;20018;-67
2022/08/11 17:29:50;;;;;;;1.77;1.50;;;32.40;27.00;;;;;;5006676;28;20095;-67
2022/08/11 17:35:29;;;;;;;;;;;32.50;27.00;;;;;;5007201;28;20068;-67
2022/08/11 17:38:16;;;;;;;1.75;1.20;;;32.60;27.00;;;;;;5019481;28;20177;-67
2022/08/11 17:49:10;;;;;;;1.88;1.20;;;32.50;26.80;;;;;;5003262;28;20049;-67
2022/08/11 17:59:55;;;;;;;1.45;1.00;;;32.00;27.00;;;;;;5004371;28;20049;-68
2022/08/11 18:05:26;;;;;;;3.00;1.30;;;32.00;27.10;;;;;;5003075;28;20397;-68
